Time;durP1;ratioP1;P1;durP2;ratioP2;P2;SDS_P1;SDS_P2;PMS_P1;PMS_P2;Temp;Humidity;BMP_temperature;BMP_pressure;BME280_temperature;BME280_humidity;BME280_pressure;Samples;Min_cycle;Max_cycle;Signal;HPM_P1;HPM_P2
2022/10/09 00:01:21;;;;;;;51.40;31.95;;;;;;;8.21;82.32;101245.84;1860127;77;21511;-84
2022/10/09 00:03:50;;;;;;;38.38;26.07;;;;;;;8.21;82.66;101241.92;1855235;77;20968;-85
2022/10/09 00:06:21;;;;;;;39.83;25.50;;;;;;;8.21;82.95;101231.00;1849197;76;21252;-85
2022/10/09 00:08:47;;;;;;;38.23;26.17;;;;;;;8.21;83.18;101238.84;1849180;77;20912;-86
2022/10/09 00:11:19;;;;;;;36.03;25.92;;;;;;;8.22;83.41;101234.46;1849267;77;20857;-85
2022/10/09 00:13:47;;;;;;;37.28;24.87;;;;;;;8.22;83.50;101234.00;1848987;77;21457;-85
2022/10/09 00:16:16;;;;;;;38.08;25.70;;;;;;;8.21;83.56;101229.70;1849179;77;20995;-86
2022/10/09 00:18:43;;;;;;;38.67;24.63;;;;;;;8.18;83.51;101219.39;1849164;77;21107;-85
2022/10/09 00:21:23;;;;;;;41.05;25.35;;;;;;;8.17;83.62;101220.74;1849317;76;21383;-85
2022/10/09 00:23:50;;;;;;;34.83;23.20;;;;;;;8.16;83.54;101223.82;1849339;77;20948;-85
2022/10/09 00:26:17;;;;;;;32.05;22.75;;;;;;;8.15;83.52;101215.57;1849384;76;20929;-84
2022/10/09 00:28:44;;;;;;;33.83;24.80;;;;;;;8.13;83.48;101216.09;1849338;76;20861;-84
2022/10/09 00:31:10;;;;;;;36.17;21.75;;;;;;;8.10;83.41;101214.45;1850322;76;21739;-84
2022/10/09 00:33:37;;;;;;;38.58;23.80;;;;;;;8.08;83.26;101218.89;1851077;77;20941;-86
2022/10/09 00:36:05;;;;;;;33.38;24.15;;;;;;;8.07;83.14;101217.63;1849997;76;20838;-84
2022/10/09 00:38:32;;;;;;;41.45;23.98;;;;;;;8.05;82.98;101220.33;1849805;77;20933;-84
2022/10/09 00:40:59;;;;;;;37.00;24.25;;;;;;;8.04;83.06;101219.07;1849392;76;20874;-85
2022/10/09 00:43:48;;;;;;;40.98;25.48;;;;;;;8.03;83.20;101216.08;1849304;76;21394;-86
2022/10/09 00:46:46;;;;;;;37.17;24.23;;;;;;;8.02;83.10;101213.05;1849095;76;20909;-85
2022/10/09 00:49:28;;;;;;;42.15;26.87;;;;;;;8.01;82.99;101210.91;1848943;76;21339;-86
2022/10/09 00:51:57;;;;;;;37.35;25.60;;;;;;;8.00;82.96;101215.72;1849299;77;20900;-85
2022/10/09 00:54:26;;;;;;;39.48;26.05;;;;;;;7.99;82.77;101218.41;1849829;77;20838;-84
2022/10/09 00:56:53;;;;;;;38.53;24.35;;;;;;;7.95;82.70;101208.99;1849949;77;21120;-86
2022/10/09 00:59:19;;;;;;;43.42;25.43;;;;;;;7.93;82.73;101210.81;1849427;76;20917;-86
2022/10/09 01:01:46;;;;;;;39.30;22.02;;;;;;;7.91;82.75;101212.63;1849341;76;20992;-86
2022/10/09 01:04:12;;;;;;;31.30;21.55;;;;;;;7.89;82.87;101204.84;1842359;75;20982;-86
2022/10/09 01:07:19;;;;;;;30.82;22.37;;;;;;;7.89;83.13;101203.54;1835006;76;20882;-86
2022/10/09 01:10:04;;;;;;;28.15;20.60;;;;;;;7.88;83.40;101201.39;1834857;77;21197;-85
2022/10/09 01:12:46;;;;;;;31.12;19.85;;;;;;;7.88;83.58;101204.00;1834859;76;20863;-86
2022/10/09 01:15:23;;;;;;;21.77;17.35;;;;;;;7.88;83.69;101200.09;1834982;77;20863;-86
2022/10/09 01:18:07;;;;;;;26.77;18.50;;;;;;;7.91;83.74;101204.80;1834953;76;20966;-86
2022/10/09 01:21:08;;;;;;;25.88;17.73;;;;;;;7.89;83.64;101193.09;1835253;77;21278;-85
2022/10/09 01:24:00;;;;;;;27.45;18.60;;;;;;;7.87;83.54;101201.02;1834921;77;21157;-87
2022/10/09 01:26:58;;;;;;;27.02;19.45;;;;;;;7.87;83.46;101206.23;1834776;77;20926;-86
2022/10/09 01:29:28;;;;;;;27.32;19.40;;;;;;;7.87;83.40;101201.48;1834932;77;20921;-85
2022/10/09 01:31:55;;;;;;;28.20;21.68;;;;;;;7.86;83.41;101204.52;1835017;77;21336;-86
2022/10/09 01:34:22;;;;;;;40.50;22.70;;;;;;;7.86;83.41;101203.21;1808136;77;21480;-85
2022/10/09 01:36:48;;;;;;;27.52;19.70;;;;;;;7.85;83.43;101203.30;1836341;77;21118;-86
2022/10/09 01:39:17;;;;;;;21.82;17.87;;;;;;;7.85;83.54;101202.83;1835365;77;20871;-86
2022/10/09 01:41:46;;;;;;;33.80;24.07;;;;;;;7.84;83.56;101206.34;1834890;77;20839;-86
2022/10/09 01:44:19;;;;;;;35.03;25.48;;;;;;;7.83;83.54;101200.73;1834935;77;20879;-87
2022/10/09 01:46:47;;;;;;;33.73;26.50;;;;;;;7.81;83.54;101209.54;1835052;78;20996;-85
2022/10/09 01:49:47;;;;;;;36.15;24.98;;;;;;;7.77;83.53;101204.88;1835028;77;21085;-85
2022/10/09 01:52:39;;;;;;;31.37;23.57;;;;;;;7.75;83.57;101210.61;1834937;77;20943;-84
2022/10/09 01:55:32;;;;;;;32.93;22.02;;;;;;;7.75;83.70;101208.47;1835052;77;20851;-85
2022/10/09 01:58:35;;;;;;;28.75;21.23;;;;;;;7.73;83.63;101205.91;1834986;77;20923;-86
2022/10/09 02:01:15;;;;;;;30.60;21.35;;;;;;;7.73;83.37;101201.98;1802360;76;20906;-86
2022/10/09 02:03:43;;;;;;;31.40;20.77;;;;;;;7.70;83.04;101211.26;1835240;77;21153;-84
2022/10/09 02:06:12;;;;;;;29.95;18.35;;;;;;;7.67;82.88;101209.63;1851329;77;20893;-86
2022/10/09 02:08:40;;;;;;;27.37;19.65;;;;;;;7.65;82.75;101205.38;1851213;77;20886;-85
2022/10/09 02:11:10;;;;;;;27.52;18.52;;;;;;;7.63;82.65;101201.97;1849563;77;21469;-86
2022/10/09 02:13:38;;;;;;;26.40;18.15;;;;;;;7.61;82.64;101199.87;1849483;77;20972;-85
2022/10/09 02:16:10;;;;;;;24.05;18.30;;;;;;;7.58;82.52;101198.23;1850121;77;21147;-86
2022/10/09 02:18:46;;;;;;;27.67;18.77;;;;;;;7.57;82.55;101191.75;1849705;77;20877;-85
2022/10/09 02:21:21;;;;;;;28.52;18.15;;;;;;;7.54;82.72;101192.73;1849552;77;21217;-86
2022/10/09 02:23:49;;;;;;;25.60;17.52;;;;;;;7.53;82.70;101191.01;1849456;77;21039;-86
2022/10/09 02:26:17;;;;;;;22.27;17.62;;;;;;;7.52;82.85;101190.63;1849383;77;21004;-86
2022/10/09 02:28:43;;;;;;;26.48;19.10;;;;;;;7.50;82.93;101187.22;1849282;77;21202;-85
2022/10/09 02:31:26;;;;;;;27.37;19.57;;;;;;;7.48;83.13;101187.27;1849309;76;20957;-86
2022/10/09 02:33:58;;;;;;;26.62;19.75;;;;;;;7.48;83.48;101185.97;1849361;77;20869;-85
2022/10/09 02:36:25;;;;;;;26.80;18.80;;;;;;;7.47;83.80;101179.06;1849301;77;20944;-86
2022/10/09 02:38:52;;;;;;;26.80;19.20;;;;;;;7.49;84.06;101190.73;1849363;77;20826;-85
2022/10/09 02:41:20;;;;;;;25.68;18.20;;;;;;;7.50;84.22;101184.61;1849313;77;21857;-86
2022/10/09 02:43:46;;;;;;;29.92;19.35;;;;;;;7.51;84.35;101181.08;1849208;77;20858;-85
2022/10/09 02:46:13;;;;;;;19.60;16.32;;;;;;;7.51;84.27;101181.54;1849483;77;20869;-85
2022/10/09 02:48:40;;;;;;;27.82;19.57;;;;;;;7.51;84.15;101178.47;1849364;77;20907;-85
2022/10/09 02:51:07;;;;;;;23.42;17.55;;;;;;;7.51;84.05;101184.99;1849541;77;20850;-85
2022/10/09 02:53:34;;;;;;;26.65;18.10;;;;;;;7.52;83.95;101185.87;1851312;77;21245;-84
2022/10/09 02:56:01;;;;;;;24.60;18.92;;;;;;;7.51;84.05;101180.23;1851378;77;20960;-83
2022/10/09 02:58:32;;;;;;;28.25;19.32;;;;;;;7.52;84.11;101180.65;1849887;77;20901;-86
2022/10/09 03:00:59;;;;;;;32.00;20.30;;;;;;;7.51;84.03;101185.45;1849311;77;20933;-87
2022/10/09 03:03:25;;;;;;;43.65;28.15;;;;;;;7.51;84.05;101185.45;1849378;77;20877;-84
2022/10/09 03:06:00;;;;;;;48.65;30.23;;;;;;;7.49;83.97;101177.67;1835886;77;21120;-86
2022/10/09 03:08:27;;;;;;;53.38;31.07;;;;;;;7.48;83.94;101179.91;1834872;77;20973;-86
2022/10/09 03:10:53;;;;;;;43.78;28.90;;;;;;;7.47;83.95;101180.83;1835063;77;20903;-86
2022/10/09 03:13:20;;;;;;;37.17;23.65;;;;;;;7.46;83.98;101176.04;1835007;77;20954;-82
2022/10/09 03:15:47;;;;;;;35.50;22.17;;;;;;;7.44;83.93;101173.09;1837081;78;20993;-85
2022/10/09 03:18:14;;;;;;;25.57;18.67;;;;;;;7.43;83.87;101180.08;1836822;77;21085;-84
2022/10/09 03:20:42;;;;;;;38.73;22.07;;;;;;;7.44;83.80;101181.77;1834837;76;20918;-85
2022/10/09 03:23:08;;;;;;;25.45;18.60;;;;;;;7.42;83.68;101185.34;1835055;78;20942;-86
2022/10/09 03:25:35;;;;;;;27.85;18.73;;;;;;;7.40;83.59;101176.30;1836253;77;21005;-84
2022/10/09 03:28:02;;;;;;;24.45;17.95;;;;;;;7.39;83.50;101180.26;1837431;77;21360;-85
2022/10/09 03:30:29;;;;;;;25.92;17.77;;;;;;;7.37;83.47;101171.64;1835190;77;21376;-85
2022/10/09 03:32:55;;;;;;;24.05;16.55;;;;;;;7.36;83.40;101172.09;1834984;77;20961;-86
2022/10/09 03:35:22;;;;;;;24.15;15.90;;;;;;;7.34;83.35;101171.77;1835071;77;21420;-86
2022/10/09 03:37:49;;;;;;;24.50;17.30;;;;;;;7.34;83.27;101163.94;1834881;78;20914;-86
2022/10/09 03:40:17;;;;;;;23.32;16.50;;;;;;;7.32;83.11;101157.92;1835134;77;21424;-87
2022/10/09 03:42:44;;;;;;;26.23;17.82;;;;;;;7.28;83.02;101161.09;1834805;77;21811;-85
2022/10/09 03:45:10;;;;;;;24.27;16.27;;;;;;;7.20;82.99;101150.95;1834660;77;20973;-86
2022/10/09 03:47:37;;;;;;;24.20;16.62;;;;;;;7.25;83.08;101158.14;1834874;77;21380;-86
2022/10/09 03:50:07;;;;;;;24.18;16.65;;;;;;;7.23;83.16;101153.90;1834943;77;20891;-86
2022/10/09 03:52:35;;;;;;;23.77;17.85;;;;;;;7.23;83.32;101155.20;1835044;77;20867;-86
2022/10/09 03:55:04;;;;;;;27.58;18.55;;;;;;;7.23;83.33;101146.07;1834980;78;21313;-87
2022/10/09 03:57:30;;;;;;;23.77;18.90;;;;;;;7.22;83.35;101146.50;1835021;77;20938;-85
2022/10/09 03:59:57;;;;;;;46.13;28.12;;;;;;;7.21;83.39;101142.67;1835142;77;20961;-87
2022/10/09 04:02:23;;;;;;;31.60;23.87;;;;;;;7.21;83.41;101152.64;1834951;76;20811;-86
2022/10/09 04:04:50;;;;;;;34.13;24.27;;;;;;;7.22;83.56;101150.88;1844441;77;21507;-86
2022/10/09 04:07:18;;;;;;;33.23;22.75;;;;;;;7.24;83.88;101146.45;1860229;77;21239;-84
2022/10/09 04:09:44;;;;;;;30.72;24.20;;;;;;;7.26;84.23;101145.95;1860092;76;20872;-86
2022/10/09 04:12:11;;;;;;;34.38;23.75;;;;;;;7.28;84.53;101146.74;1860925;77;20903;-87
2022/10/09 04:14:38;;;;;;;25.45;20.35;;;;;;;7.30;84.87;101138.87;1860335;77;20875;-86
2022/10/09 04:17:04;;;;;;;31.07;20.55;;;;;;;7.32;84.98;101138.36;1860404;76;20867;-85
2022/10/09 04:19:33;;;;;;;28.27;20.68;;;;;;;7.33;85.19;101135.67;1860613;77;20875;-86
2022/10/09 04:21:59;;;;;;;29.60;19.07;;;;;;;7.34;85.42;101128.25;1860176;77;21449;-86
2022/10/09 04:24:26;;;;;;;31.15;20.17;;;;;;;7.35;85.35;101129.94;1861378;77;20994;-86
2022/10/09 04:26:53;;;;;;;30.48;22.80;;;;;;;7.37;85.17;101125.98;1860383;76;20840;-86
2022/10/09 04:29:19;;;;;;;40.65;26.70;;;;;;;7.38;85.02;101132.45;1860514;77;20954;-85
2022/10/09 04:31:48;;;;;;;44.60;34.33;;;;;;;7.41;84.93;101128.87;1860753;76;21190;-85
2022/10/09 04:34:14;;;;;;;51.85;37.05;;;;;;;7.42;84.83;101127.48;1860586;77;20840;-85
2022/10/09 04:36:41;;;;;;;52.00;39.00;;;;;;;7.44;84.72;101132.19;1860350;76;20844;-86
2022/10/09 04:39:07;;;;;;;137.47;80.75;;;;;;;7.47;84.60;101134.70;1860511;77;20950;-85
2022/10/09 04:41:34;;;;;;;152.97;85.95;;;;;;;7.51;84.44;101130.66;1860431;77;20909;-85
2022/10/09 04:44:00;;;;;;;236.20;133.07;;;;;;;7.52;84.34;101133.21;1860091;77;21754;-86
2022/10/09 04:46:27;;;;;;;230.15;132.18;;;;;;;7.57;84.39;101134.34;1860078;77;21436;-86
2022/10/09 04:48:53;;;;;;;162.92;96.12;;;;;;;7.59;84.36;101141.19;1860408;76;20907;-86
2022/10/09 04:51:20;;;;;;;146.77;87.15;;;;;;;7.65;84.24;101142.73;1860980;77;21463;-88
2022/10/09 04:53:46;;;;;;;116.15;67.75;;;;;;;7.69;84.14;101144.28;1860567;77;20970;-86
2022/10/09 04:56:18;;;;;;;89.25;51.35;;;;;;;7.76;84.23;101137.05;1860412;76;21195;-87
2022/10/09 04:58:44;;;;;;;59.73;38.95;;;;;;;7.84;84.21;101135.84;1860405;77;21064;-87
2022/10/09 05:01:20;;;;;;;54.73;33.50;;;;;;;7.92;83.99;101134.23;1860594;77;20930;-86
2022/10/09 05:03:47;;;;;;;41.95;29.32;;;;;;;7.99;83.94;101128.31;1860019;76;20942;-86
2022/10/09 05:06:15;;;;;;;38.45;26.07;;;;;;;8.07;84.00;101137.53;1851234;77;20873;-88
2022/10/09 05:08:42;;;;;;;36.17;25.32;;;;;;;8.15;84.05;101127.21;1849323;77;21131;-87
2022/10/09 05:11:14;;;;;;;34.80;23.95;;;;;;;8.24;84.25;101130.73;1849281;77;20941;-86
2022/10/09 05:13:44;;;;;;;31.37;21.87;;;;;;;8.36;84.61;101121.09;1849388;76;20908;-86
2022/10/09 05:16:14;;;;;;;33.78;22.95;;;;;;;8.50;84.88;101117.45;1849534;77;21387;-84
2022/10/09 05:18:48;;;;;;;29.18;20.97;;;;;;;8.67;84.95;101118.46;1849750;77;20843;-86
2022/10/09 05:21:15;;;;;;;36.05;22.85;;;;;;;8.86;85.28;101124.58;1849428;77;21895;-87
2022/10/09 05:23:43;;;;;;;30.17;21.30;;;;;;;9.09;85.48;101113.53;1849154;77;20874;-87
2022/10/09 05:26:14;;;;;;;27.70;18.57;;;;;;;9.46;86.06;101120.99;1849243;77;20897;-87
2022/10/09 05:28:40;;;;;;;24.00;18.05;;;;;;;10.01;86.26;101124.03;1849587;76;20901;-89
2022/10/09 05:31:07;;;;;;;27.93;17.25;;;;;;;10.49;84.69;101130.36;1849353;76;20948;-87
2022/10/09 05:33:34;;;;;;;21.48;16.45;;;;;;;10.80;83.12;101128.30;1849522;77;21109;-87
2022/10/09 05:36:03;;;;;;;26.00;17.50;;;;;;;11.07;82.09;101131.69;1850128;77;20956;-83
2022/10/09 05:38:31;;;;;;;17.62;15.68;;;;;;;11.54;81.91;101135.67;1850928;77;20921;-87
2022/10/09 05:41:04;;;;;;;21.07;14.13;;;;;;;12.26;81.04;101135.97;1850756;77;20917;-86
2022/10/09 05:43:35;;;;;;;24.07;14.95;;;;;;;13.09;78.92;101134.90;1849392;77;21425;-88
2022/10/09 05:46:22;;;;;;;18.25;15.40;;;;;;;13.94;75.98;101138.30;1849477;77;21276;-86
2022/10/09 05:48:57;;;;;;;18.20;13.95;;;;;;;14.66;73.08;101134.78;1849247;77;20976;-86
2022/10/09 05:51:32;;;;;;;16.60;13.53;;;;;;;15.41;70.59;101137.90;1849147;77;21402;-86
2022/10/09 05:54:00;;;;;;;18.30;14.73;;;;;;;16.05;68.16;101138.98;1849430;76;20960;-86
2022/10/09 05:56:35;;;;;;;20.88;13.53;;;;;;;16.65;66.04;101138.86;1849548;76;20857;-88
2022/10/09 05:59:05;;;;;;;24.40;13.53;;;;;;;17.24;64.08;101133.34;1851532;77;21070;-86
2022/10/09 06:01:34;;;;;;;18.62;14.45;;;;;;;17.89;62.29;101130.80;1851571;76;20865;-86
2022/10/09 06:04:01;;;;;;;16.15;12.10;;;;;;;18.55;60.69;101130.56;1850520;76;20921;-86
2022/10/09 06:06:31;;;;;;;16.55;12.47;;;;;;;19.13;58.39;101126.85;1838382;77;20931;-87
2022/10/09 06:08:57;;;;;;;13.90;12.05;;;;;;;19.64;56.57;101125.00;1834950;77;21459;-86
2022/10/09 06:11:27;;;;;;;15.48;10.63;;;;;;;20.18;54.68;101120.94;1835282;76;21144;-86
2022/10/09 06:13:58;;;;;;;12.70;9.90;;;;;;;20.75;52.68;101116.16;1834990;76;21001;-85
2022/10/09 06:16:27;;;;;;;10.98;9.48;;;;;;;21.28;50.98;101107.47;1835368;77;20879;-87
2022/10/09 06:18:56;;;;;;;12.40;11.08;;;;;;;21.75;49.66;101101.13;1835259;77;20907;-87
2022/10/09 06:21:22;;;;;;;10.48;9.03;;;;;;;22.14;48.11;101101.12;1834983;76;20859;-87
2022/10/09 06:23:54;;;;;;;15.10;9.25;;;;;;;22.50;47.27;101097.03;1835442;76;21115;-87
2022/10/09 06:26:30;;;;;;;9.15;7.92;;;;;;;22.81;46.15;101092.52;1835288;76;20922;-87
2022/10/09 06:29:01;;;;;;;12.18;8.08;;;;;;;22.89;45.30;101089.02;1800076;77;20879;-88
2022/10/09 06:31:35;;;;;;;10.68;8.30;;;;;;;22.67;44.93;101089.09;1835140;77;20883;-86
2022/10/09 06:34:03;;;;;;;10.03;7.53;;;;;;;22.29;45.37;101089.88;1835061;76;20910;-86
2022/10/09 06:36:32;;;;;;;10.05;8.08;;;;;;;21.83;45.58;101086.48;1836106;77;21151;-85
2022/10/09 06:39:01;;;;;;;11.57;8.00;;;;;;;21.30;46.23;101090.31;1835101;77;20914;-86
2022/10/09 06:41:28;;;;;;;8.90;7.47;;;;;;;20.85;46.93;101087.14;1835081;77;20974;-87
2022/10/09 06:43:59;;;;;;;8.63;7.28;;;;;;;20.40;47.98;101082.48;1835102;77;21388;-87
2022/10/09 06:46:35;;;;;;;11.83;7.78;;;;;;;19.98;48.89;101081.52;1834048;77;20894;-86
2022/10/09 06:49:02;;;;;;;7.67;6.85;;;;;;;19.59;49.70;101076.69;1836468;77;21179;-85
2022/10/09 06:51:29;;;;;;;11.50;7.22;;;;;;;19.28;50.38;101076.80;1835331;77;20915;-88
2022/10/09 06:53:58;;;;;;;10.72;6.62;;;;;;;18.98;50.37;101077.69;1837497;76;20855;-86
2022/10/09 06:56:27;;;;;;;12.15;7.80;;;;;;;18.67;51.20;101083.00;1836378;77;20883;-86
2022/10/09 06:58:53;;;;;;;8.68;7.10;;;;;;;18.42;51.86;101082.95;1835213;77;21379;-86
2022/10/09 07:01:23;;;;;;;8.78;6.25;;;;;;;18.21;52.80;101081.66;1835213;77;21103;-83
2022/10/09 07:03:55;;;;;;;8.75;5.87;;;;;;;18.22;53.47;101078.02;1835136;77;21009;-85
2022/10/09 07:06:24;;;;;;;9.10;8.08;;;;;;;18.55;53.58;101087.56;1835080;75;20910;-86
2022/10/09 07:09:05;;;;;;;13.68;7.33;;;;;;;19.02;52.14;101079.11;1836236;77;20875;-85
2022/10/09 07:11:37;;;;;;;10.08;8.13;;;;;;;19.49;50.54;101085.14;1835863;77;20915;-86
2022/10/09 07:14:06;;;;;;;11.03;6.95;;;;;;;19.95;50.36;101078.31;1835370;77;21508;-86
2022/10/09 07:16:40;;;;;;;9.20;8.13;;;;;;;20.45;49.05;101070.06;1834984;77;20879;-86
2022/10/09 07:19:09;;;;;;;15.28;7.05;;;;;;;20.91;47.94;101069.20;1835141;77;20938;-88
2022/10/09 07:21:40;;;;;;;9.98;6.67;;;;;;;21.44;47.19;101067.63;1836279;77;20910;-86
2022/10/09 07:24:07;;;;;;;8.20;5.72;;;;;;;22.09;46.25;101066.50;1835555;78;21792;-88
2022/10/09 07:26:38;;;;;;;7.85;5.87;;;;;;;22.68;44.87;101060.87;1835021;77;21202;-89
2022/10/09 07:29:07;;;;;;;8.20;6.03;;;;;;;23.26;43.62;101055.23;1835152;77;20910;-89
2022/10/09 07:31:33;;;;;;;8.55;5.92;;;;;;;23.78;42.76;101055.46;1834796;77;20902;-88
2022/10/09 07:34:00;;;;;;;13.10;6.37;;;;;;;24.31;41.74;101061.26;1834821;77;20961;-88
2022/10/09 07:36:26;;;;;;;9.08;5.92;;;;;;;24.83;39.79;101050.02;1835138;77;20856;-86
2022/10/09 07:38:55;;;;;;;11.88;6.00;;;;;;;25.31;39.22;101052.66;1834908;77;21132;-87
2022/10/09 07:41:26;;;;;;;9.30;5.70;;;;;;;25.75;38.37;101046.09;1834814;77;21333;-88
2022/10/09 07:43:53;;;;;;;12.28;6.50;;;;;;;26.22;38.18;101042.30;1834987;77;21384;-87
2022/10/09 07:46:22;;;;;;;12.82;9.48;;;;;;;26.64;37.30;101044.88;1835955;77;21014;-90
2022/10/09 07:48:49;;;;;;;16.25;6.25;;;;;;;26.93;36.55;101040.98;1836431;77;20969;-87
2022/10/09 07:51:23;;;;;;;13.90;6.00;;;;;;;27.23;36.07;101045.27;1835860;77;21149;-89
2022/10/09 07:53:50;;;;;;;7.50;5.30;;;;;;;27.53;35.32;101042.98;1836026;77;20874;-84
2022/10/09 07:56:25;;;;;;;15.05;6.00;;;;;;;27.79;34.82;101049.95;1808774;78;20993;-86
2022/10/09 07:58:57;;;;;;;10.88;6.75;;;;;;;28.06;34.58;101046.97;1835948;77;20903;-86
2022/10/09 08:01:24;;;;;;;7.17;6.15;;;;;;;28.34;33.70;101051.48;1836123;77;20879;-83
2022/10/09 08:03:52;;;;;;;6.80;6.10;;;;;;;28.55;33.46;101038.46;1836042;77;21168;-85
2022/10/09 08:06:19;;;;;;;16.25;12.33;;;;;;;28.75;33.30;101030.45;1834834;75;20906;-87
2022/10/09 08:08:50;;;;;;;8.60;5.97;;;;;;;28.89;32.93;101036.72;1835067;77;21329;-88
2022/10/09 08:11:19;;;;;;;13.72;5.90;;;;;;;29.10;32.42;101033.05;1834944;77;20950;-87
2022/10/09 08:13:47;;;;;;;10.85;6.12;;;;;;;29.31;32.31;101028.02;1834835;77;20902;-87
2022/10/09 08:16:15;;;;;;;10.53;7.45;;;;;;;29.61;31.92;101030.31;1834784;77;21111;-86
2022/10/09 08:20:41;;;;;;;10.88;6.62;;;;;;;30.08;31.15;101023.02;1854662;77;23293;-88
2022/10/09 08:23:09;;;;;;;9.45;7.25;;;;;;;30.18;31.09;101020.72;1790723;78;20895;-88
2022/10/09 08:25:35;;;;;;;10.70;8.03;;;;;;;30.21;31.03;101025.69;1822274;78;21781;-86
2022/10/09 08:28:03;;;;;;;9.60;7.42;;;;;;;30.22;30.72;101026.55;1822187;78;21346;-86
2022/10/09 08:30:30;;;;;;;13.90;8.45;;;;;;;30.13;30.66;101033.53;1822286;78;20918;-86
2022/10/09 08:32:57;;;;;;;14.00;7.65;;;;;;;30.04;30.85;101032.09;1822173;78;20934;-85
2022/10/09 08:35:24;;;;;;;15.08;7.10;;;;;;;29.98;30.64;101032.92;1822257;78;21372;-87
2022/10/09 08:37:51;;;;;;;8.00;6.28;;;;;;;29.80;30.89;101028.16;1822113;78;21124;-87
2022/10/09 08:40:41;;;;;;;20.97;6.70;;;;;;;29.69;30.80;101023.39;1823186;78;20871;-88
2022/10/09 08:43:13;;;;;;;8.88;5.67;;;;;;;29.56;31.24;101025.53;1822514;78;20930;-87
2022/10/09 08:45:39;;;;;;;11.48;6.72;;;;;;;29.41;31.43;101020.84;1822194;78;20907;-87
2022/10/09 08:48:11;;;;;;;9.15;6.50;;;;;;;29.34;32.00;101016.79;1822259;78;20856;-86
2022/10/09 08:50:39;;;;;;;7.15;6.37;;;;;;;29.33;31.87;101015.96;1790402;78;21244;-86
2022/10/09 08:53:15;;;;;;;8.80;6.08;;;;;;;29.24;31.59;101013.16;1822205;78;20848;-87
2022/10/09 08:55:55;;;;;;;7.90;6.08;;;;;;;29.12;31.82;101016.95;1817207;78;20974;-87
2022/10/09 08:58:24;;;;;;;12.50;6.37;;;;;;;29.17;32.17;101010.11;1822292;78;20931;-87
2022/10/09 09:00:54;;;;;;;7.80;5.80;;;;;;;29.35;32.06;101002.25;1822378;78;20844;-86
2022/10/09 09:03:46;;;;;;;13.13;5.75;;;;;;;29.57;32.25;100997.98;1822258;78;21231;-87
2022/10/09 09:06:19;;;;;;;8.18;6.28;;;;;;;29.77;31.82;100992.09;1822905;78;20935;-88
2022/10/09 09:09:13;;;;;;;14.50;6.67;;;;;;;29.96;31.36;100990.38;1822181;78;20908;-87
2022/10/09 09:11:55;;;;;;;10.05;6.12;;;;;;;30.09;31.14;100979.53;1822105;78;20892;-87
2022/10/09 09:14:44;;;;;;;9.40;6.08;;;;;;;30.36;31.09;100983.53;1822451;78;20966;-87
2022/10/09 09:17:51;;;;;;;10.70;6.17;;;;;;;30.62;30.94;100970.95;1822162;78;21062;-85
2022/10/09 09:20:25;;;;;;;9.78;6.65;;;;;;;30.90;30.00;100972.77;1750982;81;20952;-87
2022/10/09 09:22:51;;;;;;;10.23;6.40;;;;;;;31.13;29.76;100970.03;1751351;82;20877;-85
2022/10/09 09:25:28;;;;;;;7.90;5.97;;;;;;;31.23;29.58;100982.55;1789441;78;20935;-87
2022/10/09 09:27:59;;;;;;;7.65;5.85;;;;;;;31.27;29.63;100979.70;1822345;78;20918;-87
2022/10/09 09:30:36;;;;;;;7.22;5.83;;;;;;;31.26;29.48;100980.77;1821957;78;21805;-87
2022/10/09 09:33:24;;;;;;;9.08;6.70;;;;;;;31.32;29.27;100984.47;1821623;78;20903;-89
2022/10/09 09:36:15;;;;;;;9.05;6.50;;;;;;;31.39;29.04;100974.39;1820433;78;20935;-88
2022/10/09 09:38:41;;;;;;;14.80;8.10;;;;;;;31.49;29.07;100974.77;1822634;78;20931;-87
2022/10/09 09:41:08;;;;;;;7.30;4.62;;;;;;;31.50;28.81;100976.95;1822234;78;20978;-86
2022/10/09 09:43:35;;;;;;;7.90;4.62;;;;;;;31.52;28.93;100977.55;1822093;78;20821;-89
2022/10/09 09:46:12;;;;;;;7.50;4.17;;;;;;;31.50;28.76;100965.56;1821773;78;20840;-86
2022/10/09 09:48:42;;;;;;;10.30;4.58;;;;;;;31.45;29.19;100965.95;1821858;78;20950;-87
2022/10/09 09:51:19;;;;;;;13.60;4.70;;;;;;;31.36;29.80;100959.94;1821763;78;20923;-88
2022/10/09 09:54:02;;;;;;;5.17;3.58;;;;;;;31.40;29.17;100959.80;1821068;78;20872;-89
2022/10/09 09:56:46;;;;;;;8.73;3.98;;;;;;;31.50;29.05;100962.03;1821658;78;21039;-87
2022/10/09 09:59:40;;;;;;;4.80;3.98;;;;;;;31.55;28.91;100948.13;1820654;78;20974;-89
2022/10/09 10:02:19;;;;;;;5.17;4.15;;;;;;;31.64;28.83;100945.11;1821873;78;20887;-90
2022/10/09 10:05:04;;;;;;;6.92;3.72;;;;;;;31.82;28.71;100946.50;1821767;78;20923;-89
2022/10/09 10:07:35;;;;;;;7.42;3.47;;;;;;;31.96;29.01;100940.40;1821899;78;20907;-91
2022/10/09 10:10:26;;;;;;;6.35;3.83;;;;;;;32.09;28.69;100933.49;1821837;78;21767;-90
2022/10/09 10:12:57;;;;;;;6.87;3.87;;;;;;;32.09;28.48;100932.67;1822243;78;20868;-88
2022/10/09 10:15:30;;;;;;;5.90;4.37;;;;;;;31.88;28.51;100932.55;1821942;78;20907;-88
2022/10/09 10:18:07;;;;;;;5.00;4.20;;;;;;;31.57;28.75;100931.61;1822065;78;20895;-89
2022/10/09 10:20:59;;;;;;;7.92;4.30;;;;;;;31.14;29.32;100925.62;1824081;78;20880;-90
2022/10/09 10:23:51;;;;;;;7.75;4.47;;;;;;;30.66;30.11;100931.53;1808292;78;21218;-89
2022/10/09 10:26:48;;;;;;;9.28;5.03;;;;;;;29.97;30.80;100931.21;1824907;78;21780;-89
2022/10/09 10:29:35;;;;;;;8.30;5.30;;;;;;;29.27;31.64;100925.45;1825213;78;20891;-88
2022/10/09 10:32:10;;;;;;;7.53;4.42;;;;;;;28.65;32.79;100911.22;1824966;78;21357;-89
2022/10/09 10:35:04;;;;;;;8.80;4.90;;;;;;;28.16;33.47;100905.53;1825367;78;20879;-85
2022/10/09 10:37:49;;;;;;;5.92;4.62;;;;;;;27.63;34.05;100904.70;1727662;83;21058;-89
2022/10/09 10:40:40;;;;;;;9.08;4.53;;;;;;;27.07;35.14;100904.14;1805492;78;20935;-90
2022/10/09 10:43:15;;;;;;;6.53;4.45;;;;;;;26.58;35.72;100892.80;1825037;78;20868;-88
2022/10/09 10:46:04;;;;;;;7.72;5.37;;;;;;;26.05;36.67;100901.86;1825220;78;20880;-88
2022/10/09 10:48:44;;;;;;;7.72;4.58;;;;;;;25.61;37.71;100897.31;1825249;78;20935;-87
2022/10/09 10:51:52;;;;;;;9.05;4.67;;;;;;;25.21;38.60;100896.69;1825375;78;21364;-90
2022/10/09 10:54:39;;;;;;;8.75;3.90;;;;;;;24.85;39.25;100887.55;1825302;78;20966;-88
2022/10/09 10:57:22;;;;;;;5.47;4.22;;;;;;;24.46;40.14;100883.92;1825393;78;21317;-88
2022/10/09 10:59:59;;;;;;;6.97;4.92;;;;;;;24.16;40.80;100873.00;1826839;78;21483;-89
2022/10/09 11:02:51;;;;;;;11.57;5.75;;;;;;;23.88;41.33;100865.09;1826338;78;21385;-89
2022/10/09 11:05:28;;;;;;;6.12;4.53;;;;;;;23.61;42.02;100857.80;1828028;78;21187;-87
2022/10/09 11:08:18;;;;;;;9.53;4.30;;;;;;;23.39;42.93;100859.36;1802397;78;20967;-88
2022/10/09 11:11:04;;;;;;;11.50;4.12;;;;;;;23.25;43.41;100856.84;1792989;79;20895;-89
2022/10/09 11:13:45;;;;;;;7.03;3.75;;;;;;;23.10;44.04;100864.73;1792790;80;20978;-88
2022/10/09 11:16:35;;;;;;;9.30;3.98;;;;;;;22.96;44.32;100868.03;1792671;79;20907;-87
2022/10/09 11:19:20;;;;;;;9.28;6.65;;;;;;;22.79;44.66;100863.67;1772684;79;21465;-88
2022/10/09 11:22:10;;;;;;;7.28;3.98;;;;;;;22.62;45.40;100860.16;1794157;79;20848;-85
2022/10/09 11:24:50;;;;;;;5.03;3.65;;;;;;;22.47;45.75;100863.97;1795297;80;21017;-87
2022/10/09 11:27:30;;;;;;;6.03;3.75;;;;;;;22.31;46.05;100870.11;1794693;79;20895;-86
2022/10/09 11:30:07;;;;;;;7.80;4.03;;;;;;;22.13;46.69;100863.52;1770355;80;20926;-86
2022/10/09 11:33:04;;;;;;;9.28;4.80;;;;;;;21.96;47.13;100871.12;1794580;79;21251;-85
2022/10/09 11:35:43;;;;;;;10.50;5.00;;;;;;;21.81;47.71;100860.19;1795082;80;20982;-88
2022/10/09 11:38:32;;;;;;;10.45;5.05;;;;;;;21.71;48.52;100862.48;1795765;79;20966;-89
2022/10/09 11:40:59;;;;;;;18.20;5.37;;;;;;;21.65;48.88;100855.61;1794238;80;21067;-88
2022/10/09 11:43:59;;;;;;;8.43;5.00;;;;;;;21.60;49.18;100853.42;1793988;80;20872;-89
2022/10/09 11:46:37;;;;;;;15.23;6.10;;;;;;;21.55;49.43;100857.57;1793173;79;21142;-90
2022/10/09 11:49:24;;;;;;;9.25;5.90;;;;;;;21.49;49.92;100861.69;1792883;80;20915;-89